Time;durP1;ratioP1;P1;durP2;ratioP2;P2;SDS_P1;SDS_P2;PMS_P1;PMS_P2;Temp;Humidity;BMP_temperature;BMP_pressure;BME280_temperature;BME280_humidity;BME280_pressure;Samples;Min_cycle;Max_cycle;Signal;HPM_P1;HPM_P2
2022/05/31 00:00:27;;;;;;;12.13;7.65;;;;;;;8.56;83.03;101339.47;5110673;28;20059;-71
2022/05/31 00:02:55;;;;;;;11.15;7.22;;;;;;;8.51;83.01;101338.66;5111472;28;20023;-71
2022/05/31 00:05:20;;;;;;;11.93;7.00;;;;;;;8.47;84.23;101343.88;5110885;28;20065;-71
2022/05/31 00:07:46;;;;;;;10.27;7.18;;;;;;;8.40;84.18;101332.66;5100266;28;20024;-71
2022/05/31 00:10:13;;;;;;;12.32;7.15;;;;;;;8.35;84.02;101335.28;5110953;28;20076;-71
2022/05/31 00:12:39;;;;;;;9.80;7.07;;;;;;;8.30;85.51;101324.03;5106869;28;20046;-71
2022/05/31 00:15:06;;;;;;;8.23;6.70;;;;;;;8.25;84.98;101331.00;5105028;28;20102;-71
2022/05/31 00:17:32;;;;;;;14.40;7.50;;;;;;;8.16;85.55;101329.31;5110480;28;20023;-71
2022/05/31 00:19:57;;;;;;;10.63;7.22;;;;;;;8.09;85.51;101335.44;5109234;28;20024;-71
2022/05/31 00:22:25;;;;;;;9.05;6.97;;;;;;;8.06;86.35;101338.03;5095327;28;20032;-71
2022/05/31 00:24:51;;;;;;;11.88;7.47;;;;;;;8.05;86.41;101333.72;5098004;28;20042;-70
2022/05/31 00:27:19;;;;;;;12.20;7.53;;;;;;;8.07;86.45;101334.56;5111833;28;20023;-71
2022/05/31 00:29:47;;;;;;;12.48;7.55;;;;;;;8.02;86.17;101328.53;5103117;28;20103;-71
2022/05/31 00:32:14;;;;;;;13.23;7.55;;;;;;;8.03;86.14;101342.38;5098672;28;20158;-71
2022/05/31 00:34:42;;;;;;;9.70;6.72;;;;;;;8.03;86.48;101338.03;5109111;28;20391;-71
2022/05/31 00:37:07;;;;;;;11.95;7.30;;;;;;;8.00;86.49;101329.41;5107721;28;20467;-71
2022/05/31 00:39:33;;;;;;;9.80;6.80;;;;;;;8.02;86.42;101328.53;5106999;28;20038;-71
2022/05/31 00:42:05;;;;;;;10.30;7.07;;;;;;;7.99;86.16;101328.56;5109482;28;20031;-70
2022/05/31 00:44:31;;;;;;;13.23;7.45;;;;;;;7.97;86.29;101332.88;5109403;28;20475;-71
2022/05/31 00:47:00;;;;;;;12.57;7.07;;;;;;;7.91;86.43;101343.28;5107067;28;20074;-71
2022/05/31 00:49:31;;;;;;;9.02;6.88;;;;;;;7.93;86.87;101341.56;5102477;28;20020;-71
2022/05/31 00:52:00;;;;;;;9.40;7.07;;;;;;;7.91;86.10;101336.41;5100074;28;20496;-71
2022/05/31 00:54:29;;;;;;;8.88;6.90;;;;;;;7.92;87.11;101335.50;5106461;28;20534;-71
2022/05/31 00:56:55;;;;;;;11.80;6.88;;;;;;;7.88;86.48;101332.91;5111835;28;20016;-71
2022/05/31 00:59:27;;;;;;;10.13;7.32;;;;;;;7.88;87.11;101338.09;5107012;28;20035;-71
2022/05/31 01:01:56;;;;;;;11.93;6.97;;;;;;;7.84;87.20;101328.63;5104214;28;20023;-71
2022/05/31 01:04:38;;;;;;;12.23;7.88;;;;;;;7.82;87.30;101341.63;5107988;28;20394;-71
2022/05/31 01:07:05;;;;;;;9.88;7.00;;;;;;;7.79;87.60;101343.38;5111011;28;20106;-71
2022/05/31 01:09:30;;;;;;;9.80;7.32;;;;;;;7.79;87.55;101335.59;5109094;28;20043;-71
2022/05/31 01:11:57;;;;;;;8.63;6.50;;;;;;;7.77;88.03;101330.38;5108040;28;20024;-71
2022/05/31 01:14:22;;;;;;;9.23;7.00;;;;;;;7.74;87.68;101331.25;5109676;28;20035;-71
2022/05/31 01:16:53;;;;;;;9.65;6.75;;;;;;;7.71;88.11;101323.47;5108586;28;20466;-71
2022/05/31 01:19:55;;;;;;;11.73;6.72;;;;;;;7.68;87.38;101326.09;5107810;28;20051;-71
2022/05/31 01:22:03;;;;;;;11.13;7.18;;;;;;;7.63;87.87;101326.97;5102399;28;20109;-71
2022/05/31 01:24:31;;;;;;;10.10;6.88;;;;;;;7.60;88.27;101319.22;5105446;28;20047;-71
2022/05/31 01:27:04;;;;;;;13.38;7.70;;;;;;;7.58;88.79;101328.72;5109238;28;20030;-71
2022/05/31 01:29:38;;;;;;;9.70;6.95;;;;;;;7.56;89.40;101315.75;5108540;28;20019;-71
2022/05/31 01:32:07;;;;;;;10.85;7.55;;;;;;;7.50;89.03;101315.78;5108259;28;20046;-70
2022/05/31 01:34:40;;;;;;;10.38;7.47;;;;;;;7.47;89.44;101316.66;5105055;28;20114;-71
2022/05/31 01:37:06;;;;;;;8.85;7.28;;;;;;;7.44;89.96;101319.25;5109406;28;20483;-70
2022/05/31 01:39:53;;;;;;;13.98;7.57;;;;;;;7.41;89.80;101314.06;5098111;28;20074;-71
2022/05/31 01:42:40;;;;;;;11.10;7.65;;;;;;;7.37;89.58;101316.69;5109057;28;20566;-70
2022/05/31 01:45:29;;;;;;;10.57;6.45;;;;;;;7.33;89.17;101317.56;5100147;28;20027;-71
2022/05/31 01:47:59;;;;;;;12.90;6.95;;;;;;;7.30;90.29;101314.97;5098684;28;20028;-70
2022/05/31 01:50:25;;;;;;;9.18;6.68;;;;;;;7.24;90.39;101315.84;5106286;28;20113;-70
2022/05/31 01:52:51;;;;;;;9.48;7.38;;;;;;;7.24;90.83;101316.72;5101117;28;20031;-71
2022/05/31 01:55:17;;;;;;;9.82;7.32;;;;;;;7.22;90.88;101315.84;5111485;28;20165;-71
2022/05/31 01:57:48;;;;;;;11.25;7.97;;;;;;;7.16;91.16;101318.47;5115420;28;20038;-70
2022/05/31 02:00:15;;;;;;;15.27;7.85;;;;;;;7.17;90.85;101306.38;5111050;28;20019;-71
2022/05/31 02:02:41;;;;;;;9.02;7.47;;;;;;;7.23;91.54;101319.31;5111258;28;20028;-71
2022/05/31 02:05:07;;;;;;;9.80;6.90;;;;;;;7.29;91.22;101316.69;5114445;28;20081;-71
2022/05/31 02:07:33;;;;;;;10.75;7.90;;;;;;;7.33;91.73;101310.66;5114334;28;20036;-71
2022/05/31 02:09:59;;;;;;;12.48;7.60;;;;;;;7.41;91.63;101310.63;5110361;28;20026;-71
2022/05/31 02:12:28;;;;;;;11.57;8.02;;;;;;;7.46;91.96;101306.28;5110544;28;20028;-71
2022/05/31 02:14:54;;;;;;;9.57;8.00;;;;;;;7.48;91.68;101312.31;5110922;28;20387;-71
2022/05/31 02:17:21;;;;;;;11.13;7.55;;;;;;;7.50;91.56;101302.81;5100919;28;20032;-71
2022/05/31 02:19:46;;;;;;;12.32;7.63;;;;;;;7.61;91.91;101310.53;5111478;28;20039;-71
2022/05/31 02:22:15;;;;;;;16.30;8.55;;;;;;;7.63;91.86;101312.28;5101110;28;20032;-71
2022/05/31 02:24:40;;;;;;;10.48;7.93;;;;;;;7.67;91.87;101301.00;5112907;28;20023;-71
2022/05/31 02:27:07;;;;;;;11.38;7.93;;;;;;;7.70;91.26;101301.00;5115169;28;20023;-70
2022/05/31 02:29:35;;;;;;;11.77;8.30;;;;;;;7.72;91.90;101301.88;5109165;27;20023;-70
2022/05/31 02:32:05;;;;;;;12.13;8.32;;;;;;;7.75;91.57;101293.22;5111325;28;20055;-70
2022/05/31 02:34:35;;;;;;;13.52;7.95;;;;;;;7.78;91.01;101300.09;5112451;28;20556;-71
2022/05/31 02:37:00;;;;;;;9.77;7.90;;;;;;;7.80;90.95;101295.75;5101485;28;20541;-70
2022/05/31 02:39:26;;;;;;;12.85;8.30;;;;;;;7.80;91.00;101296.63;5104089;28;20032;-70
2022/05/31 02:41:51;;;;;;;11.63;7.63;;;;;;;7.81;91.24;101287.09;5099884;28;20016;-70
2022/05/31 02:44:18;;;;;;;10.50;7.65;;;;;;;7.83;90.87;101291.41;5112033;27;20067;-70
2022/05/31 02:46:43;;;;;;;12.27;7.78;;;;;;;7.87;90.18;101294.84;5099965;28;20131;-70
2022/05/31 02:49:09;;;;;;;8.93;7.60;;;;;;;7.87;90.11;101293.13;5104222;28;20024;-70
2022/05/31 02:51:41;;;;;;;10.10;7.65;;;;;;;7.89;90.35;101288.78;5106342;28;20508;-70
2022/05/31 02:54:07;;;;;;;11.50;7.70;;;;;;;7.90;90.89;101294.84;5101362;28;20063;-70
2022/05/31 02:56:32;;;;;;;12.18;7.72;;;;;;;7.89;90.48;101290.53;5109344;28;20475;-71
2022/05/31 02:58:59;;;;;;;10.45;7.78;;;;;;;7.86;90.22;101288.81;5112986;28;20044;-70
2022/05/31 03:01:28;;;;;;;10.25;7.88;;;;;;;7.89;90.05;101290.53;5110539;28;20028;-70
2022/05/31 03:03:53;;;;;;;14.75;7.97;;;;;;;7.91;89.59;101286.19;5110129;28;20032;-71
2022/05/31 03:06:20;;;;;;;10.75;8.05;;;;;;;7.93;89.92;101287.03;5112527;28;20028;-70
2022/05/31 03:08:45;;;;;;;10.18;8.05;;;;;;;7.91;89.80;101284.47;5111697;28;20102;-70
2022/05/31 03:11:25;;;;;;;9.05;7.32;;;;;;;7.92;89.25;101290.53;5105162;28;20122;-70
2022/05/31 03:13:55;;;;;;;12.20;7.45;;;;;;;7.90;89.54;101287.91;5097632;28;20040;-70
2022/05/31 03:16:22;;;;;;;10.30;7.80;;;;;;;7.91;89.45;101293.97;5113871;28;20063;-70
2022/05/31 03:18:55;;;;;;;12.05;7.57;;;;;;;7.98;89.57;101280.09;5109730;28;20051;-70
2022/05/31 03:21:26;;;;;;;10.90;7.70;;;;;;;8.00;89.11;101283.53;5102575;28;20467;-70
2022/05/31 03:24:00;;;;;;;9.75;7.55;;;;;;;8.02;89.37;101276.63;5102975;28;20122;-70
2022/05/31 03:26:29;;;;;;;11.07;7.15;;;;;;;8.03;89.49;101267.94;5104770;28;20081;-70
2022/05/31 03:28:55;;;;;;;12.25;8.15;;;;;;;8.08;88.71;101273.13;5111703;28;20015;-70
2022/05/31 03:31:20;;;;;;;10.00;7.72;;;;;;;8.15;89.46;101273.06;5109515;28;20093;-70
2022/05/31 03:33:46;;;;;;;10.23;7.93;;;;;;;8.18;88.96;101267.84;5112311;28;20493;-70
2022/05/31 03:36:12;;;;;;;13.00;7.55;;;;;;;8.23;88.94;101272.16;5112423;28;20027;-70
2022/05/31 03:38:37;;;;;;;9.55;7.20;;;;;;;8.24;89.70;101268.66;5110783;28;20023;-71
2022/05/31 03:41:03;;;;;;;11.48;7.72;;;;;;;8.23;89.27;101270.41;5109439;28;20027;-70
2022/05/31 03:43:32;;;;;;;10.00;7.30;;;;;;;8.25;89.31;101273.88;5111558;28;20396;-71
2022/05/31 03:45:57;;;;;;;8.57;7.50;;;;;;;8.25;89.09;101265.22;5107219;28;20019;-70
2022/05/31 03:48:23;;;;;;;8.85;7.35;;;;;;;8.26;90.16;101274.72;5108419;28;20031;-71
2022/05/31 03:51:10;;;;;;;10.88;8.00;;;;;;;8.28;89.40;101270.38;5100367;28;20034;-70
2022/05/31 03:53:35;;;;;;;9.57;7.50;;;;;;;8.28;89.49;101267.78;5106301;28;20071;-71
2022/05/31 03:56:07;;;;;;;10.70;7.25;;;;;;;8.28;89.61;101267.78;5109910;28;20503;-70
2022/05/31 03:58:32;;;;;;;13.98;8.35;;;;;;;8.26;89.49;101261.72;5108231;28;20107;-71
2022/05/31 04:00:58;;;;;;;13.45;8.15;;;;;;;8.29;89.54;101270.38;5109257;28;20103;-70
2022/05/31 04:03:25;;;;;;;12.70;8.00;;;;;;;8.30;89.07;101260.81;5111055;28;20031;-71
2022/05/31 04:05:51;;;;;;;10.73;7.78;;;;;;;8.31;88.78;101257.38;5111852;28;20039;-70
2022/05/31 04:08:16;;;;;;;11.70;8.10;;;;;;;8.34;88.71;101262.56;5110488;27;20433;-70
2022/05/31 04:10:43;;;;;;;11.95;7.30;;;;;;;8.33;88.23;101266.88;5109855;28;20028;-70
2022/05/31 04:13:10;;;;;;;11.05;7.50;;;;;;;8.37;88.38;101267.69;5112044;28;20028;-70
2022/05/31 04:15:35;;;;;;;12.07;8.75;;;;;;;8.41;88.61;101259.91;5108032;28;20028;-71
2022/05/31 04:18:02;;;;;;;11.38;8.02;;;;;;;8.45;87.83;101260.75;5109815;28;20031;-70
2022/05/31 04:20:28;;;;;;;13.93;9.07;;;;;;;8.45;87.30;101265.94;5110861;28;20445;-71
2022/05/31 04:23:58;;;;;;;15.05;8.55;;;;;;;8.52;87.45;101266.75;5098553;28;20114;-70
2022/05/31 04:25:38;;;;;;;10.40;8.02;;;;;;;8.56;88.02;101264.13;5096414;28;20561;-71
2022/05/31 04:28:03;;;;;;;13.20;9.40;;;;;;;8.57;85.39;101257.22;5111403;28;20023;-70
2022/05/31 04:30:29;;;;;;;13.27;8.73;;;;;;;8.62;86.21;101263.22;5110702;28;20398;-71
2022/05/31 04:32:54;;;;;;;13.85;8.50;;;;;;;8.62;85.31;101261.47;5112292;28;20043;-71
2022/05/31 04:35:19;;;;;;;11.43;8.40;;;;;;;8.66;85.82;101270.09;5107117;28;20067;-71
2022/05/31 04:37:44;;;;;;;12.88;8.77;;;;;;;8.68;86.02;101257.97;5111090;28;20079;-70
2022/05/31 04:40:10;;;;;;;12.32;8.90;;;;;;;8.73;86.31;101265.69;5109418;28;20020;-71
2022/05/31 04:42:37;;;;;;;14.52;9.15;;;;;;;8.75;86.45;101259.63;5111442;28;20058;-71
2022/05/31 04:45:03;;;;;;;16.58;9.82;;;;;;;8.74;86.57;101265.72;5105780;28;20024;-70
2022/05/31 04:47:28;;;;;;;16.05;9.52;;;;;;;8.74;85.60;101259.66;5099654;28;20061;-71
2022/05/31 04:49:54;;;;;;;17.45;9.32;;;;;;;8.74;86.09;101263.09;5105383;28;20102;-70
2022/05/31 04:52:19;;;;;;;15.63;9.85;;;;;;;8.79;86.04;101263.06;5108373;28;20482;-70
2022/05/31 04:54:44;;;;;;;15.73;10.60;;;;;;;8.85;85.58;101261.25;5103479;28;20076;-70
2022/05/31 04:57:10;;;;;;;14.68;9.38;;;;;;;8.91;86.14;101256.00;5107089;28;20161;-71
2022/05/31 04:59:35;;;;;;;14.30;9.85;;;;;;;8.99;85.92;101249.84;5102205;28;20019;-70
2022/05/31 05:02:00;;;;;;;16.67;10.00;;;;;;;9.04;84.56;101256.75;5104722;28;20065;-70
2022/05/31 05:04:25;;;;;;;11.98;10.00;;;;;;;9.11;85.13;101255.78;5098924;28;20032;-70
2022/05/31 05:06:51;;;;;;;13.43;9.98;;;;;;;9.17;85.00;101251.41;5107685;28;20044;-70
2022/05/31 05:09:16;;;;;;;14.77;10.25;;;;;;;9.20;84.77;101246.19;5106680;28;20399;-71
2022/05/31 05:11:41;;;;;;;16.40;10.32;;;;;;;9.36;85.41;101253.78;5107685;28;20251;-70
2022/05/31 05:14:07;;;;;;;14.15;10.35;;;;;;;9.45;85.00;101258.03;5108582;28;20032;-70
2022/05/31 05:16:32;;;;;;;19.70;10.68;;;;;;;9.51;85.14;101251.84;5110425;28;20076;-71
2022/05/31 05:18:57;;;;;;;20.08;10.85;;;;;;;9.55;84.61;101249.22;5107298;28;20104;-71
2022/05/31 05:21:22;;;;;;;18.08;10.80;;;;;;;9.60;84.30;101246.53;5110684;28;20035;-71
2022/05/31 05:23:48;;;;;;;19.92;10.73;;;;;;;9.69;84.27;101253.38;5108658;28;20127;-71
2022/05/31 05:26:14;;;;;;;21.92;11.88;;;;;;;9.78;83.86;101243.72;5108179;28;20024;-70
2022/05/31 05:31:30;;;;;;;23.75;10.90;;;;;;;9.93;83.96;101250.44;5113809;28;20046;-70
2022/05/31 05:33:57;;;;;;;16.87;10.97;;;;;;;9.99;83.83;101247.75;5112064;28;20032;-70
2022/05/31 05:36:24;;;;;;;17.15;11.75;;;;;;;10.07;82.87;101253.72;5115790;27;20027;-71
2022/05/31 05:38:49;;;;;;;20.45;10.82;;;;;;;10.14;83.12;101253.63;5113415;28;20027;-70
2022/05/31 05:41:16;;;;;;;22.52;11.05;;;;;;;10.16;82.47;101249.22;5113246;28;20055;-71
2022/05/31 05:43:41;;;;;;;18.17;10.45;;;;;;;10.17;82.74;101240.53;5114863;28;20380;-70
2022/05/31 05:46:18;;;;;;;18.27;10.90;;;;;;;10.19;82.67;101246.59;5110622;28;20034;-70
2022/05/31 05:48:44;;;;;;;15.98;10.77;;;;;;;10.19;82.95;101247.44;5114878;28;20028;-70
2022/05/31 05:51:15;;;;;;;17.55;11.10;;;;;;;10.14;81.58;101251.88;5104377;28;20031;-71
2022/05/31 05:53:41;;;;;;;17.60;10.95;;;;;;;10.10;81.29;101250.19;5109619;28;20024;-70
2022/05/31 05:56:06;;;;;;;16.90;11.73;;;;;;;10.02;83.04;101250.31;5104324;28;20538;-70
2022/05/31 05:58:35;;;;;;;18.50;11.48;;;;;;;9.95;83.24;101253.88;5113267;28;20027;-70
2022/05/31 06:01:01;;;;;;;20.40;11.45;;;;;;;9.85;82.58;101244.47;5106183;28;20027;-70
2022/05/31 06:03:35;;;;;;;17.05;11.93;;;;;;;9.78;84.14;101245.47;5113246;28;20440;-70
2022/05/31 06:06:00;;;;;;;17.27;11.88;;;;;;;9.72;85.08;101253.34;5104567;28;20472;-70
2022/05/31 06:08:32;;;;;;;18.90;11.98;;;;;;;9.67;85.33;101240.38;5104950;28;20024;-70
2022/05/31 06:11:05;;;;;;;17.95;11.95;;;;;;;9.66;85.39;101245.63;5100991;28;20051;-71
2022/05/31 06:13:38;;;;;;;20.30;12.68;;;;;;;9.67;84.78;101242.97;5113041;28;20032;-71
2022/05/31 06:16:06;;;;;;;15.18;12.73;;;;;;;9.74;85.17;101239.41;5098519;28;20108;-70
2022/05/31 06:18:36;;;;;;;14.75;12.38;;;;;;;9.86;84.22;101240.97;5113881;27;20027;-71
2022/05/31 06:21:05;;;;;;;17.65;12.73;;;;;;;9.97;83.83;101246.03;5107746;28;20105;-71
2022/05/31 06:23:33;;;;;;;21.75;13.30;;;;;;;10.03;83.55;101241.59;5099953;27;20039;-71
2022/05/31 06:25:59;;;;;;;17.20;13.10;;;;;;;10.19;82.79;101251.78;5109205;28;20071;-70
2022/05/31 06:28:24;;;;;;;19.10;14.10;;;;;;;10.39;83.79;101246.28;5102099;28;20536;-70
2022/05/31 06:30:50;;;;;;;17.65;13.70;;;;;;;10.63;81.23;101247.66;5110320;28;20081;-71
2022/05/31 06:33:15;;;;;;;19.40;14.20;;;;;;;10.86;81.09;101247.25;5108383;28;20036;-71
2022/05/31 06:35:40;;;;;;;19.55;13.68;;;;;;;11.07;80.56;101253.81;5100010;28;20383;-70
2022/05/31 06:38:06;;;;;;;20.45;14.02;;;;;;;11.12;79.39;101260.66;5109628;28;20475;-70
2022/05/31 06:40:31;;;;;;;18.52;13.35;;;;;;;11.08;79.55;101247.69;5104162;28;20020;-71
2022/05/31 06:42:58;;;;;;;22.42;13.23;;;;;;;11.07;79.74;101251.19;5096029;28;20086;-70
2022/05/31 06:45:23;;;;;;;18.75;13.38;;;;;;;11.09;79.07;101250.28;5098080;28;20119;-71
2022/05/31 06:47:49;;;;;;;18.05;13.38;;;;;;;11.18;78.52;101257.06;5105352;28;20111;-71
2022/05/31 06:50:14;;;;;;;17.02;11.55;;;;;;;11.26;76.90;101247.34;5113921;28;20045;-70
2022/05/31 06:58:07;;;;;;;19.73;12.35;;;;;;;11.26;76.84;101252.56;5099593;28;20325;-71
2022/05/31 07:00:33;;;;;;;17.20;11.57;;;;;;;11.31;75.94;101257.69;5098895;28;20024;-71
2022/05/31 07:02:59;;;;;;;17.42;10.98;;;;;;;11.41;75.85;101246.16;5110059;28;20023;-70
2022/05/31 07:05:25;;;;;;;16.77;10.43;;;;;;;11.59;73.96;101250.16;5114108;28;20069;-70
2022/05/31 07:07:54;;;;;;;19.58;10.70;;;;;;;11.86;74.68;101243.50;5114245;28;20020;-70
2022/05/31 07:10:21;;;;;;;18.55;11.25;;;;;;;12.13;71.83;101253.34;5113193;28;20027;-71
2022/05/31 07:12:46;;;;;;;16.90;10.63;;;;;;;12.37;72.77;101248.41;5111720;28;20028;-72
2022/05/31 07:15:13;;;;;;;14.25;10.20;;;;;;;12.69;69.19;101239.75;5113677;28;20038;-71
2022/05/31 07:17:39;;;;;;;13.13;8.88;;;;;;;12.94;70.93;101236.47;5113076;28;20065;-71
2022/05/31 07:20:06;;;;;;;12.48;9.27;;;;;;;13.21;69.38;101237.47;5114352;28;20042;-71
2022/05/31 07:22:32;;;;;;;12.38;7.68;;;;;;;13.33;67.74;101240.63;5112843;28;20424;-72
2022/05/31 07:24:57;;;;;;;11.70;7.70;;;;;;;13.39;65.31;101229.13;5103279;28;20020;-71
2022/05/31 07:27:23;;;;;;;12.13;8.07;;;;;;;13.41;65.60;101236.97;5112113;28;20053;-71
2022/05/31 07:29:49;;;;;;;10.85;7.53;;;;;;;13.44;65.17;101242.97;5106009;28;20395;-71
2022/05/31 07:32:14;;;;;;;10.90;8.10;;;;;;;13.45;65.95;101234.19;5102159;28;20028;-72
2022/05/31 07:34:39;;;;;;;8.57;7.03;;;;;;;13.50;65.60;101241.91;5113422;28;20028;-71
2022/05/31 07:37:04;;;;;;;11.50;7.32;;;;;;;13.58;65.39;101239.94;5113738;28;20042;-71
2022/05/31 07:39:30;;;;;;;12.20;7.90;;;;;;;13.61;64.74;101239.84;5112873;28;20027;-71
2022/05/31 07:41:56;;;;;;;10.27;7.00;;;;;;;13.61;62.46;101242.47;5102827;28;20016;-71
2022/05/31 07:44:23;;;;;;;11.07;7.93;;;;;;;13.59;64.59;101233.78;5093750;28;20032;-72
2022/05/31 07:46:48;;;;;;;11.13;7.78;;;;;;;13.67;65.20;101223.06;5098315;28;20015;-71
2022/05/31 07:49:14;;;;;;;11.45;7.38;;;;;;;13.78;63.97;101234.97;5108292;28;20114;-72
2022/05/31 07:51:40;;;;;;;12.57;7.57;;;;;;;13.83;65.00;101226.94;5096252;28;20092;-71
2022/05/31 07:54:05;;;;;;;9.70;7.30;;;;;;;13.87;63.09;101220.72;5105967;28;20040;-71
2022/05/31 07:56:30;;;;;;;11.93;7.65;;;;;;;13.89;64.03;101210.19;5097243;28;20028;-71
2022/05/31 07:58:55;;;;;;;10.85;7.97;;;;;;;13.97;65.32;101223.91;5110367;28;20123;-71
2022/05/31 08:01:24;;;;;;;10.80;7.55;;;;;;;13.91;63.21;101218.88;5095515;28;20380;-71
2022/05/31 08:03:50;;;;;;;11.32;7.60;;;;;;;13.94;63.23;101219.63;5098793;28;20155;-71
2022/05/31 08:06:21;;;;;;;9.82;7.60;;;;;;;14.12;63.32;101217.31;5101477;28;20114;-72
2022/05/31 08:08:47;;;;;;;10.15;7.50;;;;;;;14.30;63.70;101221.97;5111746;28;20409;-72
2022/05/31 08:11:19;;;;;;;21.52;7.85;;;;;;;14.48;63.17;101217.88;5108778;28;20085;-73
2022/05/31 08:13:45;;;;;;;9.48;7.15;;;;;;;14.60;61.40;101214.00;5106947;28;20019;-71
2022/05/31 08:16:12;;;;;;;8.90;7.00;;;;;;;14.60;60.25;101212.25;5102259;28;20046;-72
2022/05/31 08:18:39;;;;;;;9.35;6.70;;;;;;;14.63;63.07;101206.88;5107659;28;20024;-71
2022/05/31 08:21:32;;;;;;;9.43;6.80;;;;;;;14.73;63.11;101212.69;5111173;28;20031;-71
2022/05/31 08:24:03;;;;;;;9.13;6.63;;;;;;;14.82;60.82;101208.88;5108904;28;20048;-71
2022/05/31 08:26:28;;;;;;;11.00;7.25;;;;;;;14.87;61.56;101206.94;5103666;28;20031;-71
2022/05/31 08:28:54;;;;;;;10.05;7.30;;;;;;;14.96;62.33;101210.09;5099420;28;20070;-71
2022/05/31 08:31:26;;;;;;;10.63;7.70;;;;;;;15.09;60.71;101207.88;5096211;28;20036;-71
2022/05/31 08:33:52;;;;;;;11.07;8.50;;;;;;;15.22;61.46;101208.28;5098482;28;20035;-71
2022/05/31 08:36:18;;;;;;;13.15;7.28;;;;;;;15.38;61.26;101208.59;5109816;28;20032;-71
2022/05/31 08:38:43;;;;;;;10.75;7.70;;;;;;;15.51;60.29;101212.47;5111974;28;20035;-71
2022/05/31 08:41:31;;;;;;;10.77;7.38;;;;;;;15.74;60.68;101210.75;5107941;28;20030;-71
2022/05/31 08:44:12;;;;;;;22.55;9.98;;;;;;;15.88;55.03;101195.28;5100053;28;20364;-71
2022/05/31 08:47:07;;;;;;;9.60;6.82;;;;;;;16.04;57.23;101204.25;5093191;28;20028;-71
2022/05/31 08:53:09;;;;;;;12.50;6.60;;;;;;;16.50;57.73;101198.88;5104564;28;20055;-72
2022/05/31 08:58:37;;;;;;;9.88;6.13;;;;;;;16.50;55.08;101198.88;5111613;28;20043;-72
2022/05/31 09:01:05;;;;;;;8.93;6.68;;;;;;;16.28;54.06;101191.88;5104714;28;20028;-72
2022/05/31 09:03:51;;;;;;;8.82;6.10;;;;;;;16.34;55.53;101196.88;5103609;28;20036;-72
2022/05/31 09:06:24;;;;;;;7.60;6.22;;;;;;;16.43;56.20;101198.28;5106014;28;20443;-72
2022/05/31 09:09:03;;;;;;;8.40;6.03;;;;;;;16.30;57.12;101195.31;5097613;28;20035;-72
2022/05/31 09:11:34;;;;;;;9.05;7.10;;;;;;;15.93;56.53;101195.97;5109988;28;20092;-72
2022/05/31 09:14:13;;;;;;;9.57;6.85;;;;;;;15.62;57.69;101198.91;5110842;28;20024;-72
2022/05/31 09:16:51;;;;;;;7.22;6.53;;;;;;;15.86;56.82;101194.50;5110813;28;20028;-72
2022/05/31 09:19:41;;;;;;;11.02;6.85;;;;;;;16.08;57.15;101187.44;5111473;28;20367;-76
2022/05/31 09:22:07;;;;;;;8.65;6.43;;;;;;;16.27;56.39;101189.31;5097902;28;20390;-76
2022/05/31 09:24:38;;;;;;;9.32;6.50;;;;;;;16.37;56.49;101188.88;5110542;28;20023;-76
2022/05/31 09:27:10;;;;;;;8.10;6.47;;;;;;;16.54;57.92;101185.50;5112082;28;20063;-76
2022/05/31 09:30:09;;;;;;;9.32;6.70;;;;;;;16.76;57.75;101185.47;5111194;28;20024;-76
2022/05/31 09:33:15;;;;;;;9.57;6.55;;;;;;;16.96;56.91;101183.75;5106362;28;20544;-76
2022/05/31 09:35:54;;;;;;;9.48;6.57;;;;;;;17.09;53.65;101188.38;5111181;28;20031;-76
2022/05/31 09:38:29;;;;;;;10.68;6.57;;;;;;;17.20;55.09;101184.41;5098328;28;20020;-76
2022/05/31 09:41:22;;;;;;;9.38;6.40;;;;;;;17.43;55.48;101189.50;5111275;28;20094;-76
2022/05/31 09:43:50;;;;;;;21.17;9.13;;;;;;;17.88;54.36;101187.41;5104898;28;20058;-76
2022/05/31 09:46:28;;;;;;;10.50;6.40;;;;;;;17.86;50.52;101184.84;5101742;28;20039;-75
2022/05/31 09:48:54;;;;;;;21.95;10.23;;;;;;;17.46;50.53;101181.44;5097966;28;20076;-76
2022/05/31 09:51:35;;;;;;;9.68;6.55;;;;;;;17.16;54.29;101182.84;5111147;28;20028;-76
2022/05/31 09:59:32;;;;;;;7.70;5.90;;;;;;;17.46;53.26;101184.09;5110784;28;20394;-76
2022/05/31 10:02:17;;;;;;;9.90;6.15;;;;;;;18.37;53.83;101171.78;5094203;28;20028;-76
2022/05/31 10:04:42;;;;;;;9.98;6.30;;;;;;;19.10;49.43;101167.97;5093666;28;20023;-76
2022/05/31 10:07:08;;;;;;;10.35;6.65;;;;;;;19.53;47.76;101170.91;5102684;28;20039;-76
2022/05/31 10:09:43;;;;;;;9.00;6.03;;;;;;;19.41;48.04;101177.72;5107648;28;20035;-76
2022/05/31 10:12:15;;;;;;;11.25;6.75;;;;;;;19.27;47.11;101174.97;5107215;28;20479;-76
2022/05/31 10:14:44;;;;;;;8.65;6.88;;;;;;;19.25;48.08;101168.06;5111606;28;20032;-76
2022/05/31 10:17:42;;;;;;;8.70;6.57;;;;;;;19.20;49.35;101170.97;5111241;27;20047;-76
2022/05/31 10:20:19;;;;;;;8.57;5.80;;;;;;;18.87;50.32;101174.50;5112543;28;20357;-76
2022/05/31 10:23:04;;;;;;;12.88;6.68;;;;;;;18.59;49.95;101171.53;5109638;27;20467;-76
2022/05/31 10:25:54;;;;;;;7.88;6.57;;;;;;;18.34;50.00;101172.78;5107557;28;20019;-76
2022/05/31 10:28:36;;;;;;;8.45;6.60;;;;;;;18.22;50.51;101176.91;5110100;28;20026;-76
2022/05/31 10:31:27;;;;;;;8.52;6.78;;;;;;;18.25;50.37;101175.91;5111582;28;20034;-76
2022/05/31 10:33:58;;;;;;;11.93;7.03;;;;;;;18.24;50.04;101171.53;5107017;28;20035;-74
2022/05/31 10:36:27;;;;;;;9.05;6.85;;;;;;;18.31;50.81;101178.25;5107900;28;20036;-75
2022/05/31 10:38:53;;;;;;;8.02;6.65;;;;;;;18.30;48.82;101165.97;5105184;28;20106;-75
2022/05/31 10:41:28;;;;;;;10.45;6.55;;;;;;;18.32;50.88;101171.19;5107243;28;20050;-76
2022/05/31 10:44:10;;;;;;;10.55;7.10;;;;;;;18.33;51.52;101165.81;5105460;28;20093;-76
2022/05/31 10:46:37;;;;;;;11.65;6.45;;;;;;;18.13;50.53;101174.72;5107330;28;20105;-76
2022/05/31 10:49:12;;;;;;;8.48;6.65;;;;;;;17.98;49.49;101170.19;5101984;28;20015;-76
2022/05/31 10:52:00;;;;;;;9.10;6.60;;;;;;;17.82;51.23;101166.59;5113855;28;20070;-76
2022/05/31 10:54:37;;;;;;;10.68;5.70;;;;;;;17.58;52.01;101177.38;5111399;28;20555;-76
2022/05/31 10:57:34;;;;;;;10.27;6.38;;;;;;;17.47;52.47;101184.94;5105856;28;20493;-76
2022/05/31 11:00:08;;;;;;;9.18;6.53;;;;;;;17.24;51.76;101172.81;5093856;28;20463;-75
2022/05/31 11:02:56;;;;;;;8.40;6.63;;;;;;;17.09;54.95;101169.94;5111599;28;20089;-75
2022/05/31 11:05:55;;;;;;;9.68;6.40;;;;;;;17.02;54.79;101171.16;5112554;28;20042;-75
2022/05/31 11:11:34;;;;;;;7.80;6.32;;;;;;;17.20;56.14;101168.59;5112419;28;20051;-75
2022/05/31 11:14:18;;;;;;;11.57;5.72;;;;;;;17.34;56.26;101175.91;5113830;28;20026;-75
2022/05/31 11:17:10;;;;;;;10.70;6.25;;;;;;;17.50;54.90;101175.09;5110335;27;20483;-75
2022/05/31 11:19:59;;;;;;;11.70;6.68;;;;;;;17.60;53.26;101179.94;5097052;28;20036;-76
2022/05/31 11:22:52;;;;;;;8.50;6.20;;;;;;;17.67;54.30;101184.84;5102899;28;20023;-75
2022/05/31 11:25:38;;;;;;;7.97;5.88;;;;;;;17.56;53.50;101187.16;5107414;28;20467;-75
2022/05/31 11:28:31;;;;;;;10.98;6.22;;;;;;;17.43;54.22;101189.50;5099950;28;20054;-76
2022/05/31 11:31:17;;;;;;;11.60;6.97;;;;;;;17.64;52.83;101181.50;5100662;28;20081;-76
2022/05/31 11:34:17;;;;;;;11.38;6.13;;;;;;;18.17;52.98;101167.50;5096914;28;20028;-75
2022/05/31 11:36:45;;;;;;;10.02;5.53;;;;;;;19.01;52.30;101178.19;5035401;28;20080;-72
2022/05/31 11:39:29;;;;;;;7.55;5.47;;;;;;;20.02;48.57;101177.91;5106468;28;20024;-75
2022/05/31 11:42:08;;;;;;;9.30;5.20;;;;;;;21.18;44.75;101165.59;5097587;28;20471;-75
2022/05/31 11:44:49;;;;;;;6.70;4.47;;;;;;;21.54;44.70;101172.19;5104874;28;20035;-72
2022/05/31 11:47:52;;;;;;;4.35;3.53;;;;;;;21.10;43.93;101173.19;5098831;28;20202;-71
2022/05/31 11:51:09;;;;;;;5.20;3.17;;;;;;;20.47;43.55;101173.47;5110720;28;20027;-71
2022/05/31 11:53:35;;;;;;;3.22;2.63;;;;;;;19.91;41.68;101175.00;5081613;28;20032;-72
2022/05/31 11:56:03;;;;;;;2.83;2.40;;;;;;;19.47;42.06;101183.63;5107817;28;20522;-70
2022/05/31 11:58:35;;;;;;;3.10;2.80;;;;;;;19.20;42.46;101184.19;5110147;28;20776;-71
2022/05/31 12:01:06;;;;;;;3.70;2.30;;;;;;;19.18;40.97;101186.06;5103308;28;20089;-72